createdAt,value
2023-05-10T00:01:18.594Z,14.31
2023-05-10T00:03:45.500Z,14.30
2023-05-10T00:06:12.067Z,14.26
2023-05-10T00:08:38.970Z,14.19
2023-05-10T00:11:05.552Z,14.12
2023-05-10T00:13:32.332Z,14.08
2023-05-10T00:15:59.028Z,14.06
2023-05-10T00:18:25.700Z,14.02
2023-05-10T00:20:52.320Z,13.92
2023-05-10T00:23:19.000Z,13.83
2023-05-10T00:25:45.736Z,13.78
2023-05-10T00:28:12.412Z,13.75
2023-05-10T00:30:39.082Z,13.70
2023-05-10T00:33:05.849Z,13.69
2023-05-10T00:35:32.526Z,13.69
2023-05-10T00:37:59.284Z,13.68
2023-05-10T00:40:26.137Z,13.63
2023-05-10T00:42:53.246Z,13.55
2023-05-10T00:45:20.201Z,13.52
2023-05-10T00:47:47.121Z,13.42
2023-05-10T00:50:15.490Z,13.33
2023-05-10T00:52:43.735Z,13.28
2023-05-10T00:55:12.416Z,13.24
2023-05-10T00:57:39.752Z,13.16
2023-05-10T01:00:08.216Z,13.08
2023-05-10T01:02:36.090Z,13.04
2023-05-10T01:05:04.498Z,13.03
2023-05-10T01:07:31.328Z,13.03
2023-05-10T01:09:58.713Z,13.00
2023-05-10T01:12:26.178Z,12.97
2023-05-10T01:14:53.212Z,12.96
2023-05-10T01:17:21.798Z,12.92
2023-05-10T01:19:48.659Z,12.90
2023-05-10T01:22:33.375Z,12.93
2023-05-10T01:25:27.663Z,12.92
2023-05-10T01:28:13.022Z,12.89
2023-05-10T01:31:07.238Z,12.87
2023-05-10T01:33:44.042Z,12.85
2023-05-10T01:36:27.173Z,12.83
2023-05-10T01:39:16.810Z,12.79
2023-05-10T01:41:53.910Z,12.79
2023-05-10T01:44:54.899Z,12.77
2023-05-10T01:47:47.748Z,12.74
2023-05-10T01:50:25.558Z,12.72
2023-05-10T01:52:55.595Z,12.71
2023-05-10T01:55:27.429Z,12.67
2023-05-10T01:58:03.036Z,12.63
2023-05-10T02:00:31.274Z,12.55
2023-05-10T02:02:58.290Z,12.49
2023-05-10T02:05:25.481Z,12.44
2023-05-10T02:07:53.236Z,12.38
2023-05-10T02:10:20.868Z,12.31
2023-05-10T02:12:50.684Z,12.27
2023-05-10T02:15:22.975Z,12.24
2023-05-10T02:17:50.478Z,12.19
2023-05-10T02:20:20.221Z,12.18
2023-05-10T02:22:50.148Z,12.18
2023-05-10T02:25:20.257Z,12.16
2023-05-10T02:27:48.358Z,12.16
2023-05-10T02:30:16.755Z,12.15
2023-05-10T02:32:44.960Z,12.16
2023-05-10T02:35:12.038Z,12.16
2023-05-10T02:37:40.637Z,12.15
2023-05-10T02:40:08.864Z,12.13
2023-05-10T02:42:38.551Z,12.08
2023-05-10T02:45:09.210Z,12.05
2023-05-10T02:47:36.271Z,11.99
2023-05-10T02:50:03.614Z,11.98
2023-05-10T02:52:37.695Z,11.95
2023-05-10T02:55:06.828Z,11.91
2023-05-10T02:57:35.112Z,11.90
2023-05-10T03:00:05.940Z,11.87
2023-05-10T03:02:32.879Z,11.83
2023-05-10T03:04:59.670Z,11.77
2023-05-10T03:07:26.658Z,11.72
2023-05-10T03:09:53.502Z,11.66
2023-05-10T03:12:34.395Z,11.66
2023-05-10T03:15:09.742Z,11.63
2023-05-10T03:17:47.712Z,11.60
2023-05-10T03:20:38.310Z,11.58
2023-05-10T03:23:27.700Z,11.55
2023-05-10T03:25:55.361Z,11.54
2023-05-10T03:28:22.935Z,11.52
2023-05-10T03:30:50.746Z,11.50
2023-05-10T03:33:17.664Z,11.50
2023-05-10T03:35:46.587Z,11.51
2023-05-10T03:38:14.705Z,11.50
2023-05-10T03:40:41.558Z,11.48
2023-05-10T03:43:08.207Z,11.47
2023-05-10T03:45:34.957Z,11.45
2023-05-10T03:48:01.641Z,11.45
2023-05-10T03:50:28.513Z,11.45
2023-05-10T03:52:55.203Z,11.47
2023-05-10T03:55:22.006Z,11.49
2023-05-10T03:57:50.435Z,11.51
2023-05-10T04:00:17.603Z,11.53
2023-05-10T04:02:46.066Z,11.55
2023-05-10T04:05:13.792Z,11.56
2023-05-10T04:07:40.588Z,11.57
2023-05-10T04:10:07.932Z,11.61
2023-05-10T04:12:34.596Z,11.65
2023-05-10T04:15:01.323Z,11.68
2023-05-10T04:17:28.013Z,11.71
2023-05-10T04:19:55.645Z,11.76
2023-05-10T04:22:22.402Z,11.75
2023-05-10T04:24:49.069Z,11.77
2023-05-10T04:27:16.059Z,11.81
2023-05-10T04:29:42.808Z,11.84
2023-05-10T04:32:11.003Z,11.88
2023-05-10T04:34:38.332Z,11.92
2023-05-10T04:37:05.343Z,11.93
2023-05-10T04:39:32.066Z,11.92
2023-05-10T04:41:58.739Z,11.93
2023-05-10T04:44:25.428Z,11.97
2023-05-10T04:46:52.069Z,12.02
2023-05-10T04:49:18.878Z,12.11
2023-05-10T04:51:45.612Z,12.15
2023-05-10T04:54:12.266Z,12.15
2023-05-10T04:56:38.969Z,12.16
2023-05-10T04:59:05.714Z,12.21
2023-05-10T05:01:32.486Z,12.28
2023-05-10T05:03:59.586Z,12.35
2023-05-10T05:06:28.000Z,12.39
2023-05-10T05:08:54.700Z,12.42
2023-05-10T05:11:21.990Z,12.45
2023-05-10T05:14:00.055Z,12.54
2023-05-10T05:16:27.771Z,12.61
2023-05-10T05:18:54.338Z,12.64
2023-05-10T05:21:21.189Z,12.63
2023-05-10T05:23:47.765Z,12.67
2023-05-10T05:26:14.310Z,12.68
2023-05-10T05:28:40.885Z,12.64
2023-05-10T05:31:08.768Z,12.63
2023-05-10T05:33:35.626Z,12.64
2023-05-10T05:36:03.713Z,12.69
2023-05-10T05:38:30.258Z,12.76
2023-05-10T05:40:56.841Z,12.79
2023-05-10T05:43:23.513Z,12.87
2023-05-10T05:45:50.618Z,12.93
2023-05-10T05:48:17.218Z,12.99
2023-05-10T05:50:43.678Z,13.01
2023-05-10T05:53:10.200Z,13.04
2023-05-10T05:55:36.804Z,13.09
2023-05-10T05:58:03.550Z,13.15
2023-05-10T06:00:30.025Z,13.20
2023-05-10T06:02:56.825Z,13.24
2023-05-10T06:05:23.403Z,13.29
2023-05-10T06:07:49.882Z,13.33
2023-05-10T06:10:16.348Z,13.37
2023-05-10T06:12:42.837Z,13.37
2023-05-10T06:15:10.074Z,13.41
2023-05-10T06:17:36.646Z,13.47
2023-05-10T06:20:03.425Z,13.55
2023-05-10T06:22:29.990Z,13.56
2023-05-10T06:24:56.524Z,13.59
2023-05-10T06:27:23.068Z,13.64
2023-05-10T06:29:52.152Z,13.69
2023-05-10T06:32:20.862Z,13.76
2023-05-10T06:34:47.546Z,13.76
2023-05-10T06:37:13.978Z,13.79
2023-05-10T06:39:40.479Z,13.85
2023-05-10T06:42:07.060Z,13.91
2023-05-10T06:44:33.556Z,13.92
2023-05-10T06:47:00.288Z,13.96
2023-05-10T06:49:26.889Z,14.04
2023-05-10T06:51:53.500Z,14.10
2023-05-10T06:54:20.163Z,14.11
2023-05-10T06:56:46.632Z,14.14
2023-05-10T06:59:14.476Z,14.12
2023-05-10T07:01:41.370Z,14.10
2023-05-10T07:04:08.519Z,14.07
2023-05-10T07:06:35.063Z,14.06
2023-05-10T07:09:01.718Z,14.09
2023-05-10T07:11:28.227Z,14.10
2023-05-10T07:13:54.699Z,14.08
2023-05-10T07:16:22.353Z,14.03
2023-05-10T07:18:49.157Z,13.93
2023-05-10T07:21:15.875Z,13.89
2023-05-10T07:23:44.847Z,13.89
2023-05-10T07:26:12.305Z,13.85
2023-05-10T07:28:39.116Z,13.83
2023-05-10T07:31:05.907Z,13.80
2023-05-10T07:33:32.636Z,13.83
2023-05-10T07:35:59.408Z,13.84
2023-05-10T07:38:26.116Z,13.87
2023-05-10T07:40:52.749Z,13.90
2023-05-10T07:43:19.492Z,13.90
2023-05-10T07:45:46.172Z,13.92
2023-05-10T07:48:12.820Z,13.93
2023-05-10T07:50:39.541Z,13.93
2023-05-10T07:53:06.203Z,13.95
2023-05-10T07:55:33.008Z,14.00
2023-05-10T07:58:11.026Z,14.02
2023-05-10T08:00:53.313Z,14.01
2023-05-10T08:03:19.969Z,13.95
2023-05-10T08:05:46.626Z,13.98
2023-05-10T08:08:13.068Z,14.01
2023-05-10T08:10:39.577Z,14.04
2023-05-10T08:13:06.131Z,14.06
2023-05-10T08:15:32.676Z,14.09
2023-05-10T08:17:59.256Z,14.13
2023-05-10T08:20:25.849Z,14.16
2023-05-10T08:22:52.401Z,14.22
2023-05-10T08:25:19.023Z,14.22
2023-05-10T08:27:45.802Z,14.24
2023-05-10T08:30:13.006Z,14.26
2023-05-10T08:32:39.617Z,14.26
2023-05-10T08:35:06.779Z,14.26
2023-05-10T08:37:34.009Z,14.24
2023-05-10T08:40:00.730Z,14.26
2023-05-10T08:42:31.214Z,14.29
2023-05-10T08:44:58.750Z,14.34
2023-05-10T08:47:26.270Z,14.32
2023-05-10T08:49:53.441Z,14.29
2023-05-10T08:52:20.872Z,14.24
2023-05-10T08:54:47.899Z,14.16
2023-05-10T08:57:14.524Z,14.09
2023-05-10T08:59:41.059Z,14.02
2023-05-10T09:02:12.544Z,13.92
2023-05-10T09:04:39.108Z,13.86
2023-05-10T09:07:05.913Z,13.79
2023-05-10T09:09:32.472Z,13.72
2023-05-10T09:11:59.068Z,13.68
2023-05-10T09:14:26.033Z,13.65
2023-05-10T09:16:54.796Z,13.62
2023-05-10T09:19:21.362Z,13.60
2023-05-10T09:21:47.879Z,13.58
2023-05-10T09:24:14.420Z,13.53
2023-05-10T09:26:49.755Z,13.55
2023-05-10T09:29:17.767Z,13.58
2023-05-10T09:31:52.606Z,13.58
2023-05-10T09:34:29.118Z,13.60
2023-05-10T09:36:58.434Z,13.58
2023-05-10T09:39:34.796Z,13.55
2023-05-10T09:42:07.313Z,13.51
2023-05-10T09:44:34.666Z,13.48
2023-05-10T09:47:02.633Z,13.47
2023-05-10T09:49:29.575Z,13.52
2023-05-10T09:52:04.618Z,13.57
2023-05-10T09:54:31.799Z,13.59
2023-05-10T09:56:58.374Z,13.59
2023-05-10T09:59:28.964Z,13.58
2023-05-10T10:02:00.438Z,13.55
2023-05-10T10:04:28.256Z,13.52
2023-05-10T10:07:05.484Z,13.50
2023-05-10T10:09:33.547Z,13.47
2023-05-10T10:12:01.698Z,13.42
2023-05-10T10:14:29.779Z,13.40
2023-05-10T10:17:07.672Z,13.39
2023-05-10T10:19:37.108Z,13.43
2023-05-10T10:22:04.154Z,13.46
2023-05-10T10:24:31.104Z,13.49
2023-05-10T10:27:06.124Z,13.50
2023-05-10T10:29:40.532Z,13.47
2023-05-10T10:32:20.558Z,13.42
2023-05-10T10:34:47.577Z,13.40
2023-05-10T10:37:14.493Z,13.29
2023-05-10T10:39:41.511Z,13.17
2023-05-10T10:42:08.204Z,13.05
2023-05-10T10:44:38.816Z,13.02
2023-05-10T10:47:12.501Z,13.04
2023-05-10T10:49:45.468Z,13.09
2023-05-10T10:52:29.386Z,13.18
2023-05-10T10:55:03.631Z,13.24
2023-05-10T10:57:33.940Z,13.30
2023-05-10T11:00:22.010Z,13.36
2023-05-10T11:02:52.560Z,13.39
2023-05-10T11:05:39.525Z,13.43
2023-05-10T11:08:17.038Z,13.45
2023-05-10T11:11:00.451Z,13.42
2023-05-10T11:13:45.850Z,13.40
2023-05-10T11:16:26.405Z,13.40
2023-05-10T11:19:01.005Z,13.41
2023-05-10T11:21:27.762Z,13.49
2023-05-10T11:23:57.540Z,13.56
2023-05-10T11:26:27.111Z,13.51
2023-05-10T11:28:57.801Z,13.56
2023-05-10T11:31:27.483Z,13.55
2023-05-10T11:33:59.375Z,13.51
2023-05-10T11:36:28.680Z,13.49
2023-05-10T11:38:56.951Z,13.47
2023-05-10T11:41:25.295Z,13.49
2023-05-10T11:43:53.972Z,13.55
2023-05-10T11:46:23.704Z,13.57
2023-05-10T11:48:52.178Z,13.58
2023-05-10T11:51:23.331Z,13.60
2023-05-10T11:53:51.477Z,13.65
2023-05-10T11:56:18.058Z,13.75
2023-05-10T11:58:44.724Z,13.87
2023-05-10T12:01:11.875Z,13.97
2023-05-10T12:03:38.827Z,14.00
2023-05-10T12:06:06.277Z,14.04
2023-05-10T12:08:32.782Z,14.15
2023-05-10T12:11:07.887Z,14.26
2023-05-10T12:13:41.221Z,14.36
2023-05-10T12:16:18.323Z,14.37
2023-05-10T12:18:45.687Z,14.33
2023-05-10T12:21:13.240Z,14.29
2023-05-10T12:23:40.579Z,14.27
2023-05-10T12:26:07.613Z,14.28
2023-05-10T12:28:34.333Z,14.32
2023-05-10T12:31:01.100Z,14.45
2023-05-10T12:33:27.573Z,14.58
2023-05-10T12:35:57.183Z,14.69
2023-05-10T12:38:30.527Z,14.74
2023-05-10T12:41:02.415Z,14.75
2023-05-10T12:43:29.176Z,14.72
2023-05-10T12:45:55.885Z,14.69
2023-05-10T12:48:22.682Z,14.72
2023-05-10T12:50:49.399Z,14.79
2023-05-10T12:53:18.906Z,14.75
2023-05-10T12:55:45.364Z,14.78
2023-05-10T12:58:15.796Z,14.80
2023-05-10T13:00:47.610Z,14.80
2023-05-10T13:03:14.103Z,14.79
2023-05-10T13:05:40.677Z,14.78
2023-05-10T13:08:07.230Z,14.78
2023-05-10T13:10:33.686Z,14.82
2023-05-10T13:13:00.382Z,14.87
2023-05-10T13:15:27.625Z,15.00
2023-05-10T13:17:54.985Z,15.13
2023-05-10T13:20:21.849Z,15.21
2023-05-10T13:22:49.188Z,15.32
2023-05-10T13:25:16.972Z,15.44
2023-05-10T13:27:43.754Z,15.53
2023-05-10T13:30:10.686Z,15.67
2023-05-10T13:32:37.234Z,15.84
2023-05-10T13:35:04.247Z,15.86
2023-05-10T13:37:31.805Z,15.82
2023-05-10T13:39:58.459Z,15.80
2023-05-10T13:42:24.950Z,15.76
2023-05-10T13:44:52.235Z,15.76
2023-05-10T13:47:19.122Z,15.77
2023-05-10T13:49:45.791Z,15.79
2023-05-10T13:52:12.952Z,15.79
2023-05-10T13:54:39.958Z,15.84
2023-05-10T13:57:07.497Z,15.89
2023-05-10T13:59:34.152Z,15.95
2023-05-10T14:02:03.513Z,15.98
2023-05-10T14:04:30.564Z,15.98
2023-05-10T14:06:57.534Z,16.07
2023-05-10T14:09:24.210Z,16.15
2023-05-10T14:11:50.953Z,16.24
2023-05-10T14:14:17.672Z,16.25
2023-05-10T14:16:45.487Z,16.26
2023-05-10T14:19:12.189Z,16.27
2023-05-10T14:21:40.090Z,16.23
2023-05-10T14:24:08.122Z,16.16
2023-05-10T14:26:37.459Z,16.21
2023-05-10T14:29:03.961Z,16.29
2023-05-10T14:31:31.220Z,16.34
2023-05-10T14:33:58.663Z,16.34
2023-05-10T14:36:25.232Z,16.35
2023-05-10T14:38:53.653Z,16.40
2023-05-10T14:41:20.161Z,16.43
2023-05-10T14:43:46.912Z,16.45
2023-05-10T14:46:13.685Z,16.43
2023-05-10T14:48:40.366Z,16.33
2023-05-10T14:51:07.562Z,16.25
2023-05-10T14:53:34.393Z,16.20
2023-05-10T14:56:02.245Z,16.14
2023-05-10T14:58:28.864Z,16.06
2023-05-10T15:00:55.427Z,16.03
2023-05-10T15:03:22.386Z,15.96
2023-05-10T15:05:49.458Z,15.87
2023-05-10T15:08:15.951Z,15.75
2023-05-10T15:10:42.549Z,15.64
2023-05-10T15:13:09.052Z,15.51
2023-05-10T15:15:35.622Z,15.43
2023-05-10T15:18:02.435Z,15.40
2023-05-10T15:20:29.123Z,15.39
2023-05-10T15:22:55.665Z,15.36
2023-05-10T15:25:22.265Z,15.36
2023-05-10T15:27:49.060Z,15.36
2023-05-10T15:30:15.665Z,15.43
2023-05-10T15:32:42.234Z,15.51
2023-05-10T15:35:11.532Z,15.59
2023-05-10T15:37:38.715Z,15.67
2023-05-10T15:40:07.163Z,15.73
2023-05-10T15:42:33.836Z,15.77
2023-05-10T15:45:00.310Z,15.77
2023-05-10T15:47:28.460Z,15.74
2023-05-10T15:49:54.960Z,15.69
2023-05-10T15:52:22.925Z,15.63
2023-05-10T15:54:50.053Z,15.59
2023-05-10T15:57:17.050Z,15.58
2023-05-10T15:59:43.807Z,15.59
2023-05-10T16:02:11.008Z,15.63
2023-05-10T16:04:37.844Z,15.65
2023-05-10T16:07:04.339Z,15.72
2023-05-10T16:09:30.816Z,15.77
2023-05-10T16:11:57.434Z,15.81
2023-05-10T16:14:24.660Z,15.79
2023-05-10T16:16:51.540Z,15.79
2023-05-10T16:19:18.346Z,15.78
2023-05-10T16:21:45.155Z,15.77
2023-05-10T16:24:11.680Z,15.72
2023-05-10T16:26:40.906Z,15.57
2023-05-10T16:29:08.601Z,15.48
2023-05-10T16:31:36.392Z,15.41
2023-05-10T16:34:03.237Z,15.29
2023-05-10T16:36:30.387Z,15.22
2023-05-10T16:38:57.078Z,15.16
2023-05-10T16:41:23.708Z,15.14
2023-05-10T16:43:50.440Z,15.13
2023-05-10T16:46:17.234Z,15.14
2023-05-10T16:48:44.088Z,15.16
2023-05-10T16:51:10.778Z,15.16
2023-05-10T16:53:37.754Z,15.10
2023-05-10T16:56:04.554Z,15.09
2023-05-10T16:58:31.233Z,15.07
2023-05-10T17:00:57.944Z,15.05
2023-05-10T17:03:24.721Z,15.03
2023-05-10T17:05:51.570Z,15.00
2023-05-10T17:08:18.254Z,14.95
2023-05-10T17:10:44.969Z,14.94
2023-05-10T17:13:11.661Z,14.93
2023-05-10T17:15:39.523Z,14.95
2023-05-10T17:18:07.426Z,14.94
2023-05-10T17:20:34.388Z,14.94
2023-05-10T17:23:02.595Z,14.90
2023-05-10T17:25:29.297Z,14.83
2023-05-10T17:27:56.000Z,14.78
2023-05-10T17:30:26.291Z,14.74
2023-05-10T17:32:54.176Z,14.71
2023-05-10T17:35:21.274Z,14.70
2023-05-10T17:37:48.022Z,14.67
2023-05-10T17:40:14.951Z,14.62
2023-05-10T17:42:41.850Z,14.59
2023-05-10T17:45:09.313Z,14.54
2023-05-10T17:47:36.085Z,14.52
2023-05-10T17:50:02.912Z,14.51
2023-05-10T17:55:12.492Z,14.42
2023-05-10T17:57:39.346Z,14.40
2023-05-10T18:00:08.601Z,14.37
2023-05-10T18:02:36.635Z,14.35
2023-05-10T18:05:04.272Z,14.35
2023-05-10T18:07:31.338Z,14.34
2023-05-10T18:09:58.435Z,14.29
2023-05-10T18:12:25.483Z,14.27
2023-05-10T18:14:52.126Z,14.24
2023-05-10T18:17:18.891Z,14.20
2023-05-10T18:19:45.554Z,14.14
2023-05-10T18:22:12.555Z,14.11
2023-05-10T18:24:40.112Z,14.08
2023-05-10T18:27:10.154Z,14.02
2023-05-10T18:29:37.349Z,14.01
2023-05-10T18:32:04.464Z,13.93
2023-05-10T18:34:31.260Z,13.92
2023-05-10T18:36:58.028Z,13.85
2023-05-10T18:39:24.932Z,13.90
2023-05-10T18:41:51.724Z,13.85
2023-05-10T18:44:19.071Z,13.85
2023-05-10T18:46:46.237Z,13.84
2023-05-10T18:49:13.164Z,13.86
2023-05-10T18:51:40.058Z,13.76
2023-05-10T18:54:07.260Z,13.80
2023-05-10T18:56:33.909Z,13.79
2023-05-10T18:59:00.716Z,13.76
2023-05-10T19:01:27.527Z,13.76
2023-05-10T19:03:54.219Z,13.74
2023-05-10T19:06:21.084Z,13.72
2023-05-10T19:08:47.725Z,13.62
2023-05-10T19:11:14.413Z,13.65
2023-05-10T19:13:41.036Z,13.62
2023-05-10T19:16:12.478Z,13.57
2023-05-10T19:18:39.771Z,13.51
2023-05-10T19:21:08.068Z,13.45
2023-05-10T19:23:35.125Z,13.43
2023-05-10T19:26:01.821Z,13.40
2023-05-10T19:28:28.560Z,13.36
2023-05-10T19:30:55.235Z,13.28
2023-05-10T19:33:22.196Z,13.26
2023-05-10T19:35:52.537Z,13.19
2023-05-10T19:38:23.043Z,13.14
2023-05-10T19:40:50.756Z,13.06
2023-05-10T19:43:17.744Z,13.04
2023-05-10T19:45:44.433Z,12.99
2023-05-10T19:48:11.274Z,12.92
2023-05-10T19:50:38.418Z,12.90
2023-05-10T19:53:05.091Z,12.86
2023-05-10T19:55:32.464Z,12.81
2023-05-10T19:58:02.366Z,12.77
2023-05-10T20:00:29.249Z,12.76
2023-05-10T20:02:55.946Z,12.71
2023-05-10T20:05:22.754Z,12.66
2023-05-10T20:07:49.475Z,12.59
2023-05-10T20:10:17.094Z,12.58
2023-05-10T20:12:52.219Z,12.50
2023-05-10T20:15:20.981Z,12.46
2023-05-10T20:17:48.581Z,12.44
2023-05-10T20:20:18.352Z,12.41
2023-05-10T20:22:45.217Z,12.39
2023-05-10T20:25:12.341Z,12.34
2023-05-10T20:27:38.929Z,12.32
2023-05-10T20:30:06.374Z,12.26
2023-05-10T20:32:34.225Z,12.19
2023-05-10T20:35:01.406Z,12.13
2023-05-10T20:37:28.099Z,12.10
2023-05-10T20:39:55.124Z,12.02
2023-05-10T20:42:22.153Z,12.00
2023-05-10T20:44:49.655Z,11.92
2023-05-10T20:47:16.733Z,11.95
2023-05-10T20:49:43.402Z,11.94
2023-05-10T20:52:10.305Z,11.90
2023-05-10T20:54:36.786Z,11.81
2023-05-10T20:57:03.332Z,11.84
2023-05-10T20:59:29.798Z,11.81
2023-05-10T21:01:57.179Z,11.82
2023-05-10T21:04:25.379Z,11.79
2023-05-10T21:06:52.883Z,11.77
2023-05-10T21:09:19.504Z,11.73
2023-05-10T21:11:46.110Z,11.72
2023-05-10T21:14:12.753Z,11.68
2023-05-10T21:16:39.316Z,11.64
2023-05-10T21:19:07.391Z,11.60
2023-05-10T21:21:34.240Z,11.53
2023-05-10T21:24:00.798Z,11.49
2023-05-10T21:26:27.335Z,11.44
2023-05-10T21:28:53.832Z,11.41
2023-05-10T21:31:20.455Z,11.39
2023-05-10T21:33:47.070Z,11.34
2023-05-10T21:36:13.933Z,11.31
2023-05-10T21:38:40.977Z,11.28
2023-05-10T21:41:08.029Z,11.23
2023-05-10T21:43:34.638Z,11.20
2023-05-10T21:46:01.427Z,11.11
2023-05-10T21:48:28.202Z,11.09
2023-05-10T21:50:54.673Z,11.07
2023-05-10T21:53:22.191Z,11.08
2023-05-10T21:55:48.939Z,11.06
2023-05-10T21:58:15.789Z,11.05
2023-05-10T22:00:42.646Z,11.08
2023-05-10T22:03:09.365Z,11.03
2023-05-10T22:05:36.086Z,11.08
2023-05-10T22:08:02.824Z,11.09
2023-05-10T22:10:29.506Z,11.12
2023-05-10T22:12:57.101Z,11.13
2023-05-10T22:15:23.800Z,11.15
2023-05-10T22:17:50.613Z,11.15
2023-05-10T22:20:17.812Z,11.12
2023-05-10T22:22:45.214Z,11.15
2023-05-10T22:25:11.881Z,11.18
2023-05-10T22:27:38.561Z,11.17
2023-05-10T22:30:06.540Z,11.19
2023-05-10T22:32:33.250Z,11.22
2023-05-10T22:34:59.942Z,11.24
2023-05-10T22:37:26.778Z,11.27
2023-05-10T22:39:53.688Z,11.24
2023-05-10T22:42:20.399Z,11.22
2023-05-10T22:44:47.103Z,11.31
2023-05-10T22:47:13.761Z,11.31
2023-05-10T22:49:40.378Z,11.32
2023-05-10T22:52:07.170Z,11.25
2023-05-10T22:54:35.624Z,11.32
2023-05-10T22:57:03.169Z,11.34
2023-05-10T22:59:29.893Z,11.38
2023-05-10T23:01:56.659Z,11.40
2023-05-10T23:04:23.362Z,11.43
2023-05-10T23:06:50.061Z,11.41
2023-05-10T23:09:16.916Z,11.39
2023-05-10T23:11:43.619Z,11.37
2023-05-10T23:14:10.235Z,11.39
2023-05-10T23:16:37.010Z,11.38
2023-05-10T23:19:03.781Z,11.40
2023-05-10T23:21:32.108Z,11.38
2023-05-10T23:23:59.140Z,11.45
2023-05-10T23:26:25.909Z,11.45
2023-05-10T23:28:52.582Z,11.45
2023-05-10T23:31:19.320Z,11.46
2023-05-10T23:33:45.981Z,11.46
2023-05-10T23:36:12.617Z,11.44
2023-05-10T23:38:39.493Z,11.43
2023-05-10T23:41:06.204Z,11.37
2023-05-10T23:43:33.016Z,11.39
2023-05-10T23:45:59.789Z,11.36
2023-05-10T23:48:26.704Z,11.34
2023-05-10T23:50:53.469Z,11.33
2023-05-10T23:53:20.164Z,11.32
2023-05-10T23:55:46.922Z,11.33
2023-05-10T23:58:13.719Z,11.33
